createdAt,value
2018-10-09T00:00:00.974Z,0
2018-10-09T00:01:00.713Z,0
2018-10-09T00:02:01.047Z,0
2018-10-09T00:03:00.947Z,0
2018-10-09T00:04:00.935Z,0
2018-10-09T00:05:00.672Z,0
2018-10-09T00:06:00.917Z,0
2018-10-09T00:07:01.074Z,0
2018-10-09T00:08:00.895Z,0
2018-10-09T00:09:00.631Z,0
2018-10-09T00:10:00.876Z,0
2018-10-09T00:11:00.869Z,0
2018-10-09T00:12:00.775Z,0
2018-10-09T00:13:00.851Z,0
2018-10-09T00:14:00.834Z,0
2018-10-09T00:15:00.829Z,0
2018-10-09T00:16:00.819Z,0
2018-10-09T00:17:00.813Z,0
2018-10-09T00:18:00.541Z,0
2018-10-09T00:19:00.782Z,0
2018-10-09T00:20:00.778Z,0
2018-10-09T00:21:00.771Z,0
2018-10-09T00:22:00.770Z,0
2018-10-09T00:23:00.748Z,0
2018-10-09T00:24:00.482Z,0
2018-10-09T00:25:00.743Z,0
2018-10-09T00:26:00.802Z,0
2018-10-09T00:27:00.713Z,0
2018-10-09T00:28:00.698Z,0
2018-10-09T00:29:00.685Z,0
2018-10-09T00:30:00.678Z,0
2018-10-09T00:31:00.665Z,0
2018-10-09T00:32:00.661Z,0
2018-10-09T00:33:00.675Z,0
2018-10-09T00:34:00.634Z,0
2018-10-09T00:35:00.625Z,0
2018-10-09T00:36:00.615Z,0
2018-10-09T00:37:00.605Z,0
2018-10-09T00:38:00.595Z,0
2018-10-09T00:39:00.584Z,0
2018-10-09T00:40:00.584Z,0
2018-10-09T00:41:00.563Z,0
2018-10-09T00:42:00.553Z,0
2018-10-09T00:43:00.544Z,0
2018-10-09T00:44:00.531Z,0
2018-10-09T00:45:00.528Z,0
2018-10-09T00:46:00.514Z,0
2018-10-09T00:47:00.516Z,0
2018-10-09T00:48:00.492Z,0
2018-10-09T00:49:00.484Z,0
2018-10-09T00:50:00.473Z,0
2018-10-09T00:51:00.207Z,0
2018-10-09T00:52:00.457Z,0
2018-10-09T00:53:00.443Z,0
2018-10-09T00:54:00.433Z,0
2018-10-09T00:55:00.425Z,0
2018-10-09T00:56:00.412Z,0
2018-10-09T00:57:00.153Z,0
2018-10-09T00:58:00.136Z,0
2018-10-09T00:59:00.381Z,0
2018-10-09T01:00:00.370Z,0
2018-10-09T01:01:00.360Z,0
2018-10-09T01:02:00.356Z,0
2018-10-09T01:03:00.088Z,0
2018-10-09T01:04:00.076Z,0
2018-10-09T01:05:00.321Z,0
2018-10-09T01:06:00.056Z,0
2018-10-09T01:07:00.306Z,0
2018-10-09T01:08:00.034Z,0
2018-10-09T01:09:00.352Z,0
2018-10-09T01:10:00.277Z,0
2018-10-09T01:11:00.258Z,0
2018-10-09T01:12:00.246Z,0
2018-10-09T01:12:59.981Z,0
2018-10-09T01:14:00.235Z,0
2018-10-09T01:15:00.215Z,0
2018-10-09T01:15:59.965Z,0
2018-10-09T01:17:00.199Z,0
2018-10-09T01:18:00.187Z,0
2018-10-09T01:19:00.176Z,0
2018-10-09T01:19:59.911Z,0
2018-10-09T01:21:00.162Z,0
2018-10-09T01:22:00.145Z,0
2018-10-09T01:23:00.139Z,0
2018-10-09T01:24:00.123Z,0
2018-10-09T01:25:00.113Z,0
2018-10-09T01:26:00.104Z,0
2018-10-09T01:27:00.092Z,0
2018-10-09T01:27:59.830Z,0
2018-10-09T01:29:00.080Z,0
2018-10-09T01:30:00.062Z,0
2018-10-09T01:31:00.052Z,0
2018-10-09T01:32:00.041Z,0
2018-10-09T01:33:00.032Z,0
2018-10-09T01:34:00.025Z,0
2018-10-09T01:35:00.011Z,0
2018-10-09T01:36:00.000Z,0
2018-10-09T01:36:59.989Z,0
2018-10-09T01:37:59.982Z,0
2018-10-09T01:38:59.974Z,0
2018-10-09T01:39:59.962Z,0
2018-10-09T01:40:59.952Z,0
2018-10-09T01:41:59.942Z,0
2018-10-09T01:42:59.936Z,0
2018-10-09T01:43:59.921Z,0
2018-10-09T01:44:59.910Z,0
2018-10-09T01:45:59.905Z,0
2018-10-09T01:46:59.896Z,0
2018-10-09T01:47:59.887Z,0
2018-10-09T01:48:59.872Z,0
2018-10-09T01:49:59.865Z,0
2018-10-09T01:50:59.849Z,0
2018-10-09T01:51:59.582Z,0
2018-10-09T01:52:59.828Z,0
2018-10-09T01:53:59.815Z,0
2018-10-09T01:54:59.551Z,0
2018-10-09T01:55:59.795Z,0
2018-10-09T01:56:59.787Z,0
2018-10-09T01:57:59.772Z,0
2018-10-09T01:58:59.762Z,0
2018-10-09T01:59:59.499Z,0
2018-10-09T02:00:59.749Z,0
2018-10-09T02:01:59.731Z,0
2018-10-09T02:02:59.722Z,0
2018-10-09T02:03:59.712Z,0
2018-10-09T02:04:59.707Z,0
2018-10-09T02:05:59.692Z,0
2018-10-09T02:06:59.679Z,0
2018-10-09T02:07:59.669Z,0
2018-10-09T02:08:59.660Z,0
2018-10-09T02:09:59.395Z,0
2018-10-09T02:10:59.636Z,0
2018-10-09T02:11:59.629Z,0
2018-10-09T02:12:59.617Z,0
2018-10-09T02:13:59.606Z,0
2018-10-09T02:14:59.341Z,0
2018-10-09T02:15:59.585Z,0
2018-10-09T02:16:59.576Z,0
2018-10-09T02:17:59.566Z,0
2018-10-09T02:18:59.553Z,0
2018-10-09T02:19:59.545Z,0
2018-10-09T02:20:59.280Z,0
2018-10-09T02:21:59.525Z,0
2018-10-09T02:22:59.514Z,0
2018-10-09T02:23:59.502Z,0
2018-10-09T02:24:59.495Z,0
2018-10-09T02:25:59.479Z,0
2018-10-09T02:26:59.475Z,0
2018-10-09T02:27:59.463Z,0
2018-10-09T02:28:59.460Z,0
2018-10-09T02:29:59.444Z,0
2018-10-09T02:30:59.427Z,0
2018-10-09T02:31:59.419Z,0
2018-10-09T02:32:59.153Z,0
2018-10-09T02:33:59.396Z,0
2018-10-09T02:34:59.394Z,0
2018-10-09T02:35:59.375Z,0
2018-10-09T02:36:59.367Z,0
2018-10-09T02:37:59.354Z,0
2018-10-09T02:38:59.095Z,0
2018-10-09T02:39:59.336Z,0
2018-10-09T02:40:59.323Z,0
2018-10-09T02:41:59.312Z,0
2018-10-09T02:42:59.380Z,0
2018-10-09T02:43:59.300Z,0
2018-10-09T02:44:59.283Z,0
2018-10-09T02:45:59.271Z,0
2018-10-09T02:46:59.258Z,0
2018-10-09T02:47:59.264Z,0
2018-10-09T02:48:59.239Z,0
2018-10-09T02:49:59.233Z,0
2018-10-09T02:50:59.221Z,0
2018-10-09T02:51:59.203Z,0
2018-10-09T02:52:59.194Z,0
2018-10-09T02:53:59.185Z,0
2018-10-09T02:54:59.173Z,0
2018-10-09T02:55:59.163Z,0
2018-10-09T02:56:59.157Z,0
2018-10-09T02:57:59.144Z,0
2018-10-09T02:58:59.136Z,0
2018-10-09T02:59:59.121Z,0
2018-10-09T03:00:59.111Z,0
2018-10-09T03:01:58.845Z,0
2018-10-09T03:02:59.087Z,0
2018-10-09T03:03:59.090Z,0
2018-10-09T03:04:59.065Z,0
2018-10-09T03:05:59.057Z,0
2018-10-09T03:06:58.790Z,0
2018-10-09T03:07:59.035Z,0
2018-10-09T03:08:59.025Z,0
2018-10-09T03:09:59.019Z,0
2018-10-09T03:10:59.004Z,0
2018-10-09T03:11:58.991Z,0
2018-10-09T03:12:58.978Z,0
2018-10-09T03:13:58.717Z,0
2018-10-09T03:14:58.962Z,0
2018-10-09T03:15:58.950Z,0
2018-10-09T03:16:58.943Z,0
2018-10-09T03:17:58.925Z,0
2018-10-09T03:18:58.914Z,0
2018-10-09T03:19:58.907Z,0
2018-10-09T03:20:58.895Z,0
2018-10-09T03:21:58.882Z,0
2018-10-09T03:22:58.879Z,0
2018-10-09T03:23:58.860Z,0
2018-10-09T03:24:58.850Z,0
2018-10-09T03:25:58.840Z,0
2018-10-09T03:26:58.828Z,0
2018-10-09T03:27:58.563Z,0
2018-10-09T03:28:58.557Z,0
2018-10-09T03:29:58.794Z,0
2018-10-09T03:30:58.792Z,0
2018-10-09T03:31:58.776Z,0
2018-10-09T03:32:58.763Z,0
2018-10-09T03:33:58.756Z,0
2018-10-09T03:34:58.742Z,0
2018-10-09T03:35:58.476Z,0
2018-10-09T03:36:58.721Z,0
2018-10-09T03:37:58.719Z,0
2018-10-09T03:38:58.700Z,0
2018-10-09T03:39:58.686Z,0
2018-10-09T03:40:58.677Z,0
2018-10-09T03:41:58.669Z,0
2018-10-09T03:42:58.654Z,0
2018-10-09T03:43:58.644Z,0
2018-10-09T03:44:58.640Z,0
2018-10-09T03:45:58.637Z,0
2018-10-09T03:46:58.356Z,0
2018-10-09T03:47:58.600Z,0
2018-10-09T03:48:58.340Z,0
2018-10-09T03:49:58.580Z,0
2018-10-09T03:50:58.570Z,0
2018-10-09T03:51:58.558Z,0
2018-10-09T03:52:58.547Z,0
2018-10-09T03:53:58.534Z,0
2018-10-09T03:54:58.527Z,0
2018-10-09T03:55:58.260Z,0
2018-10-09T03:56:58.511Z,0
2018-10-09T03:57:58.492Z,0
2018-10-09T03:58:58.481Z,0
2018-10-09T03:59:58.471Z,0
2018-10-09T04:00:58.458Z,0
2018-10-09T04:01:58.449Z,0
2018-10-09T04:02:58.439Z,0
2018-10-09T04:03:58.433Z,0
2018-10-09T04:04:58.163Z,0
2018-10-09T04:05:58.152Z,0
2018-10-09T04:06:58.398Z,0
2018-10-09T04:07:58.384Z,0
2018-10-09T04:08:58.431Z,0
2018-10-09T04:09:58.107Z,0
2018-10-09T04:10:58.351Z,0
2018-10-09T04:11:58.340Z,0
2018-10-09T04:12:58.075Z,0
2018-10-09T04:13:58.319Z,0
2018-10-09T04:14:58.309Z,0
2018-10-09T04:15:58.301Z,0
2018-10-09T04:16:58.292Z,0
2018-10-09T04:17:58.023Z,0
2018-10-09T04:18:58.268Z,0
2018-10-09T04:19:58.257Z,0
2018-10-09T04:20:58.242Z,0
2018-10-09T04:21:58.235Z,0
2018-10-09T04:22:57.968Z,0
2018-10-09T04:23:58.217Z,0
2018-10-09T04:24:58.200Z,0
2018-10-09T04:25:58.191Z,0
2018-10-09T04:26:58.199Z,0
2018-10-09T04:27:58.171Z,0
2018-10-09T04:28:58.166Z,0
2018-10-09T04:29:58.146Z,0
2018-10-09T04:30:58.134Z,0
2018-10-09T04:31:58.131Z,0
2018-10-09T04:32:58.115Z,0
2018-10-09T04:33:58.111Z,0
2018-10-09T04:34:58.095Z,0
2018-10-09T04:35:57.827Z,0
2018-10-09T04:36:58.069Z,0
2018-10-09T04:37:58.059Z,0
2018-10-09T04:38:58.051Z,0
2018-10-09T04:39:58.035Z,0
2018-10-09T04:40:58.024Z,0
2018-10-09T04:41:58.017Z,0
2018-10-09T04:42:58.004Z,0
2018-10-09T04:43:57.738Z,0
2018-10-09T04:44:57.981Z,0
2018-10-09T04:45:57.970Z,0
2018-10-09T04:46:57.957Z,0
2018-10-09T04:47:57.950Z,0
2018-10-09T04:48:57.937Z,0
2018-10-09T04:49:57.929Z,0
2018-10-09T04:50:57.913Z,0
2018-10-09T04:51:57.904Z,0
2018-10-09T04:52:58.017Z,0
2018-10-09T04:53:57.881Z,0
2018-10-09T04:54:57.869Z,0
2018-10-09T04:55:57.860Z,0
2018-10-09T04:56:57.852Z,0
2018-10-09T04:57:57.583Z,0
2018-10-09T04:58:57.826Z,0
2018-10-09T04:59:57.818Z,0
2018-10-09T05:00:57.551Z,0
2018-10-09T05:01:57.537Z,0
2018-10-09T05:02:57.526Z,0
2018-10-09T05:03:57.776Z,0
2018-10-09T05:04:57.758Z,0
2018-10-09T05:05:57.749Z,0
2018-10-09T05:06:57.745Z,0
2018-10-09T05:07:57.726Z,0
2018-10-09T05:08:57.714Z,0
2018-10-09T05:09:57.704Z,0
2018-10-09T05:10:57.692Z,0
2018-10-09T05:11:57.688Z,0
2018-10-09T05:12:57.671Z,0
2018-10-09T05:13:57.663Z,0
2018-10-09T05:14:57.394Z,0
2018-10-09T05:15:57.638Z,0
2018-10-09T05:16:57.627Z,0
2018-10-09T05:17:57.773Z,0
2018-10-09T05:18:57.349Z,0
2018-10-09T05:19:57.338Z,0
2018-10-09T05:20:57.579Z,0
2018-10-09T05:21:59.972Z,0
2018-10-09T05:22:57.303Z,0
2018-10-09T05:23:57.553Z,0
2018-10-09T05:24:57.545Z,0
2018-10-09T05:25:57.538Z,0
2018-10-09T05:26:57.265Z,0
2018-10-09T05:27:57.514Z,0
2018-10-09T05:28:57.238Z,0
2018-10-09T05:29:57.225Z,0
2018-10-09T05:30:57.525Z,0
2018-10-09T05:31:57.205Z,0
2018-10-09T05:32:57.192Z,0
2018-10-09T05:33:57.443Z,0
2018-10-09T05:34:57.423Z,0
2018-10-09T05:35:57.415Z,0
2018-10-09T05:36:57.148Z,0
2018-10-09T05:37:57.398Z,0
2018-10-09T05:38:57.126Z,0
2018-10-09T05:39:57.368Z,0
2018-10-09T05:40:57.108Z,0
2018-10-09T05:41:57.348Z,0
2018-10-09T05:42:57.336Z,0
2018-10-09T05:43:57.071Z,0
2018-10-09T05:44:57.060Z,0
2018-10-09T05:45:57.302Z,0
2018-10-09T05:46:57.037Z,0
2018-10-09T05:47:57.290Z,0
2018-10-09T05:48:57.267Z,0
2018-10-09T05:49:57.032Z,0
2018-10-09T05:50:57.248Z,0
2018-10-09T05:51:57.238Z,0
2018-10-09T05:52:57.224Z,0
2018-10-09T05:53:57.215Z,0
2018-10-09T05:54:57.205Z,0
2018-10-09T05:55:56.937Z,0
2018-10-09T05:56:57.184Z,0
2018-10-09T05:57:56.929Z,0
2018-10-09T05:58:57.163Z,0
2018-10-09T05:59:57.149Z,0
2018-10-09T06:00:57.136Z,0
2018-10-09T06:01:57.131Z,0
2018-10-09T06:02:57.115Z,0
2018-10-09T06:03:57.106Z,0
2018-10-09T06:04:57.099Z,0
2018-10-09T06:05:57.286Z,0
2018-10-09T06:06:56.815Z,0
2018-10-09T06:07:57.062Z,0
2018-10-09T06:08:56.794Z,0
2018-10-09T06:09:56.784Z,0
2018-10-09T06:10:57.028Z,0
2018-10-09T06:11:57.020Z,0
2018-10-09T06:12:57.005Z,0
2018-10-09T06:13:56.995Z,0
2018-10-09T06:14:56.731Z,0
2018-10-09T06:15:57.173Z,0
2018-10-09T06:16:56.707Z,0
2018-10-09T06:17:56.956Z,0
2018-10-09T06:18:56.942Z,0
2018-10-09T06:19:56.929Z,0
2018-10-09T06:20:56.920Z,0
2018-10-09T06:21:56.912Z,0
2018-10-09T06:22:56.642Z,0
2018-10-09T06:23:56.891Z,0
2018-10-09T06:24:56.878Z,0
2018-10-09T06:25:56.867Z,0
2018-10-09T06:26:56.863Z,0
2018-10-09T06:27:56.979Z,0
2018-10-09T06:28:56.832Z,0
2018-10-09T06:29:56.569Z,0
2018-10-09T06:30:56.558Z,0
2018-10-09T06:31:56.804Z,0
2018-10-09T06:32:56.539Z,0
2018-10-09T06:33:56.572Z,0
2018-10-09T06:34:56.772Z,0
2018-10-09T06:35:56.509Z,0
2018-10-09T06:36:56.759Z,0
2018-10-09T06:38:56.477Z,0
2018-10-09T06:39:56.719Z,0
2018-10-09T06:40:56.716Z,0
2018-10-09T06:41:56.698Z,0
2018-10-09T06:42:56.523Z,0
2018-10-09T06:43:56.423Z,0
2018-10-09T06:44:56.670Z,0
2018-10-09T06:45:56.405Z,0
2018-10-09T06:46:56.647Z,0
2018-10-09T06:47:56.645Z,0
2018-10-09T06:48:56.374Z,0
2018-10-09T06:49:56.621Z,0
2018-10-09T06:50:56.354Z,0
2018-10-09T06:51:56.348Z,0
2018-10-09T06:52:56.334Z,0
2018-10-09T06:53:57.142Z,0
2018-10-09T06:54:56.804Z,0
2018-10-09T06:55:56.561Z,0
2018-10-09T06:56:56.556Z,0
2018-10-09T06:57:56.538Z,0
2018-10-09T06:58:56.533Z,0
2018-10-09T06:59:56.266Z,0
2018-10-09T07:00:56.515Z,0
2018-10-09T07:01:56.506Z,0
2018-10-09T07:02:56.501Z,0
2018-10-09T07:03:56.487Z,0
2018-10-09T07:04:56.477Z,0
2018-10-09T07:05:56.470Z,0
2018-10-09T07:06:56.458Z,0
2018-10-09T07:07:56.453Z,0
2018-10-09T07:08:56.439Z,0
2018-10-09T07:09:56.175Z,0
2018-10-09T07:10:56.431Z,0
2018-10-09T07:11:56.415Z,0
2018-10-09T07:12:56.147Z,0
2018-10-09T07:13:56.395Z,0
2018-10-09T07:14:56.387Z,0
2018-10-09T07:15:56.120Z,0
2018-10-09T07:16:56.451Z,0
2018-10-09T07:17:56.358Z,0
2018-10-09T07:18:56.351Z,0
2018-10-09T07:19:56.344Z,0
2018-10-09T07:20:56.079Z,0
2018-10-09T07:21:56.322Z,0
2018-10-09T07:22:56.320Z,0
2018-10-09T07:23:56.317Z,0
2018-10-09T07:24:56.306Z,0
2018-10-09T07:25:56.037Z,0
2018-10-09T07:26:56.286Z,0
2018-10-09T07:27:56.465Z,0
2018-10-09T07:28:56.265Z,0
2018-10-09T07:29:56.259Z,0
2018-10-09T07:30:55.996Z,0
2018-10-09T07:31:56.246Z,0
2018-10-09T07:32:56.234Z,0
2018-10-09T07:33:56.228Z,0
2018-10-09T07:34:56.219Z,0
2018-10-09T07:35:55.956Z,0
2018-10-09T07:36:56.205Z,0
2018-10-09T07:37:56.200Z,0
2018-10-09T07:38:56.192Z,0
2018-10-09T07:39:56.182Z,0
2018-10-09T07:40:56.173Z,0
2018-10-09T07:41:56.170Z,0
2018-10-09T07:42:56.167Z,0
2018-10-09T07:43:56.285Z,0
2018-10-09T07:44:56.146Z,0
2018-10-09T07:45:55.883Z,0
2018-10-09T07:46:56.180Z,0
2018-10-09T07:47:55.867Z,0
2018-10-09T07:48:56.117Z,0
2018-10-09T07:49:55.853Z,0
2018-10-09T07:50:56.101Z,0
2018-10-09T07:51:55.841Z,0
2018-10-09T07:52:55.950Z,0
2018-10-09T07:53:55.828Z,0
2018-10-09T07:54:56.075Z,0
2018-10-09T07:55:56.072Z,0
2018-10-09T07:56:56.068Z,0
2018-10-09T07:57:56.059Z,0
2018-10-09T07:58:56.053Z,0
2018-10-09T07:59:56.044Z,0
2018-10-09T08:00:56.035Z,0
2018-10-09T08:01:56.031Z,0
2018-10-09T08:02:56.026Z,0
2018-10-09T08:03:55.762Z,0
2018-10-09T08:04:55.756Z,3.53
2018-10-09T08:05:56.006Z,4.11
2018-10-09T08:06:55.999Z,17.97
2018-10-09T08:07:55.993Z,19.79
2018-10-09T08:08:55.985Z,24.94
2018-10-09T08:09:55.975Z,28.39
2018-10-09T08:10:56.144Z,24.76
2018-10-09T08:11:55.964Z,25.04
2018-10-09T08:12:55.957Z,24.95
2018-10-09T08:13:55.696Z,26.48
2018-10-09T08:14:55.954Z,25.04
2018-10-09T08:15:55.941Z,24.09
2018-10-09T08:16:55.933Z,24.85
2018-10-09T08:17:55.931Z,25.04
2018-10-09T08:18:55.918Z,28.39
2018-10-09T08:19:55.917Z,33.65
2018-10-09T08:20:55.913Z,39.77
2018-10-09T08:21:55.646Z,52.32
2018-10-09T08:22:56.163Z,54.52
2018-10-09T08:23:55.897Z,54.14
2018-10-09T08:24:55.882Z,56.34
2018-10-09T08:25:55.878Z,60.16
2018-10-09T08:26:55.875Z,66.86
2018-10-09T08:27:56.015Z,70.78
2018-10-09T08:28:55.602Z,71.01
2018-10-09T08:29:55.599Z,81.73
2018-10-09T08:30:55.849Z,81.73
2018-10-09T08:31:55.844Z,93.3
2018-10-09T08:32:55.585Z,98.91
2018-10-09T08:33:55.829Z,97.28
2018-10-09T08:34:55.823Z,99.99
2018-10-09T08:35:55.563Z,99.67
2018-10-09T08:36:55.822Z,99.99
2018-10-09T08:37:55.810Z,99.99
2018-10-09T08:38:55.800Z,99.99
2018-10-09T08:39:55.800Z,99.99
2018-10-09T08:40:55.793Z,99.99
2018-10-09T08:41:55.787Z,99.99
2018-10-09T08:42:55.526Z,99.99
2018-10-09T08:43:55.523Z,99.99
2018-10-09T08:44:55.515Z,99.99
2018-10-09T08:45:55.765Z,99.99
2018-10-09T08:46:55.760Z,99.99
2018-10-09T08:47:55.758Z,99.99
2018-10-09T08:48:55.750Z,99.99
2018-10-09T08:49:55.746Z,99.99
2018-10-09T08:50:55.744Z,99.99
2018-10-09T08:51:55.810Z,99.99
2018-10-09T08:52:55.732Z,99.99
2018-10-09T08:53:55.472Z,99.99
2018-10-09T08:54:55.721Z,99.99
2018-10-09T08:55:55.463Z,99.99
2018-10-09T08:56:55.716Z,99.99
2018-10-09T08:57:55.710Z,99.99
2018-10-09T08:58:55.488Z,99.99
2018-10-09T08:59:55.725Z,99.99
2018-10-09T09:00:55.712Z,99.99
2018-10-09T09:01:55.434Z,99.99
2018-10-09T09:02:55.687Z,99.99
2018-10-09T09:03:55.684Z,99.99
2018-10-09T09:04:55.678Z,99.99
2018-10-09T09:05:55.675Z,99.99
2018-10-09T09:06:55.668Z,99.99
2018-10-09T09:07:55.666Z,99.99
2018-10-09T09:08:55.661Z,99.99
2018-10-09T09:09:55.666Z,99.99
2018-10-09T09:10:55.655Z,99.99
2018-10-09T09:11:55.652Z,99.99
2018-10-09T09:12:55.644Z,99.99
2018-10-09T09:13:55.728Z,99.99
2018-10-09T09:14:55.634Z,99.99
2018-10-09T09:15:55.634Z,99.99
2018-10-09T09:16:55.374Z,99.99
2018-10-09T09:17:55.632Z,99.99
2018-10-09T09:18:55.624Z,99.99
2018-10-09T09:19:55.364Z,99.99
2018-10-09T09:20:55.431Z,99.99
2018-10-09T09:21:55.611Z,99.99
2018-10-09T09:22:55.608Z,99.99
2018-10-09T09:23:55.604Z,99.99
2018-10-09T09:24:55.598Z,99.99
2018-10-09T09:25:55.596Z,99.99
2018-10-09T09:26:55.723Z,99.99
2018-10-09T09:27:55.751Z,99.1
2018-10-09T09:28:55.336Z,98.91
2018-10-09T09:29:55.582Z,99.99
2018-10-09T09:30:55.325Z,96.13
2018-10-09T09:31:55.580Z,95.94
2018-10-09T09:32:55.571Z,97.47
2018-10-09T09:33:55.571Z,98
2018-10-09T09:34:55.568Z,99.99
2018-10-09T09:35:55.308Z,99.73
2018-10-09T09:36:55.559Z,97.76
2018-10-09T09:37:55.563Z,96.9
2018-10-09T09:38:55.660Z,94.98
2018-10-09T09:39:55.557Z,95.75
2018-10-09T09:40:55.549Z,97.57
2018-10-09T09:41:55.293Z,98.77
2018-10-09T09:42:55.547Z,97.04
2018-10-09T09:43:55.542Z,98.58
2018-10-09T09:44:55.549Z,96.75
2018-10-09T09:45:55.880Z,93.72
2018-10-09T09:46:55.280Z,91.8
2018-10-09T09:47:55.278Z,91.22
2018-10-09T09:48:55.276Z,90.55
2018-10-09T09:49:55.528Z,91.6
2018-10-09T09:50:55.529Z,87.66
2018-10-09T09:51:55.589Z,85.74
2018-10-09T09:52:55.528Z,86.12
2018-10-09T09:53:55.268Z,85.93
2018-10-09T09:54:55.263Z,85.16
2018-10-09T09:55:55.518Z,86.89
2018-10-09T09:56:55.512Z,82.79
2018-10-09T09:57:55.671Z,79.61
2018-10-09T09:58:56.097Z,78.46
2018-10-09T09:59:55.509Z,77.21
2018-10-09T10:00:55.509Z,75.76
2018-10-09T10:01:55.255Z,76.06
2018-10-09T10:02:55.252Z,75.38
2018-10-09T10:03:55.506Z,74.61
2018-10-09T10:04:55.504Z,75.48
2018-10-09T10:05:55.249Z,75.67
2018-10-09T10:06:55.502Z,73.46
2018-10-09T10:07:55.500Z,72.59
2018-10-09T10:08:55.496Z,73.07
2018-10-09T10:09:55.495Z,69.12
2018-10-09T10:10:55.241Z,69.89
2018-10-09T10:11:55.239Z,70.47
2018-10-09T10:12:55.492Z,70.95
2018-10-09T10:13:55.493Z,70.37
2018-10-09T10:14:55.490Z,69.6
2018-10-09T10:15:55.649Z,67.39
2018-10-09T10:16:55.488Z,68.06
2018-10-09T10:17:55.488Z,67.87
2018-10-09T10:18:55.486Z,69.12
2018-10-09T10:19:55.482Z,70.56
2018-10-09T10:20:55.481Z,71.53
2018-10-09T10:21:55.484Z,70.09
2018-10-09T10:22:55.479Z,68.84
2018-10-09T10:23:55.484Z,66.46
2018-10-09T10:24:55.480Z,64.63
2018-10-09T10:25:55.479Z,64.15
2018-10-09T10:26:55.222Z,64.15
2018-10-09T10:27:55.473Z,68.16
2018-10-09T10:28:55.512Z,69.25
2018-10-09T10:29:55.218Z,68.19
2018-10-09T10:30:55.475Z,69.64
2018-10-09T10:31:55.473Z,71.08
2018-10-09T10:32:55.472Z,71.08
2018-10-09T10:33:55.470Z,69.25
2018-10-09T10:34:55.474Z,67.03
2018-10-09T10:35:55.213Z,65.11
2018-10-09T10:36:55.216Z,65.56
2018-10-09T10:37:55.210Z,64.82
2018-10-09T10:38:55.467Z,64.98
2018-10-09T10:39:55.463Z,64.69
2018-10-09T10:40:55.464Z,65.46
2018-10-09T10:41:55.467Z,67.1
2018-10-09T10:42:55.465Z,65.94
2018-10-09T10:43:55.203Z,64.02
2018-10-09T10:44:55.508Z,63.92
2018-10-09T10:45:55.464Z,64.37
2018-10-09T10:46:55.454Z,65.14
2018-10-09T10:47:55.457Z,67.65
2018-10-09T10:48:55.542Z,68.03
2018-10-09T10:49:55.452Z,67.45
2018-10-09T10:50:55.198Z,68.03
2018-10-09T10:51:55.455Z,69.28
2018-10-09T10:52:55.452Z,68.99
2018-10-09T10:53:55.446Z,68.22
2018-10-09T10:54:55.586Z,67.93
2018-10-09T10:55:55.446Z,69.28
2018-10-09T10:56:55.446Z,70.72
2018-10-09T10:57:55.445Z,69.34
2018-10-09T10:58:55.443Z,68.38
2018-10-09T10:59:55.444Z,69.24
2018-10-09T11:00:55.440Z,71.17
2018-10-09T11:01:55.647Z,74.34
2018-10-09T11:02:55.437Z,75.31
2018-10-09T11:03:55.438Z,74.44
2018-10-09T11:04:55.441Z,74.5
2018-10-09T11:05:55.430Z,74.5
2018-10-09T11:06:55.433Z,77.96
2018-10-09T11:07:55.594Z,80.07
2018-10-09T11:08:55.430Z,79.79
2018-10-09T11:09:55.429Z,80.94
2018-10-09T11:10:55.424Z,81.52
2018-10-09T11:11:55.167Z,81.04
2018-10-09T11:12:55.421Z,81.99
2018-10-09T11:13:55.425Z,79.21
2018-10-09T11:14:55.421Z,81.32
2018-10-09T11:15:55.415Z,80.84
2018-10-09T11:16:55.413Z,77.58
2018-10-09T11:17:55.410Z,76.52
2018-10-09T11:18:55.408Z,76.42
2018-10-09T11:19:55.410Z,76.04
2018-10-09T11:20:55.418Z,76.81
2018-10-09T11:21:55.406Z,75.75
2018-10-09T11:22:55.409Z,75.21
2018-10-09T11:23:55.403Z,75.49
2018-10-09T11:24:55.400Z,75.49
2018-10-09T11:25:55.395Z,74.92
2018-10-09T11:26:55.496Z,73.57
2018-10-09T11:27:55.392Z,73
2018-10-09T11:28:55.135Z,73.38
2018-10-09T11:29:55.394Z,73.67
2018-10-09T11:30:55.389Z,73.13
2018-10-09T11:31:55.387Z,72.36
2018-10-09T11:32:55.383Z,71.59
2018-10-09T11:33:55.126Z,72.07
2018-10-09T11:34:55.379Z,72.07
2018-10-09T11:35:55.376Z,71.88
2018-10-09T11:36:55.381Z,69.18
2018-10-09T11:37:55.373Z,68.22
2018-10-09T11:38:55.372Z,65.63
2018-10-09T11:39:55.371Z,65.91
2018-10-09T11:40:55.372Z,66.58
2018-10-09T11:41:55.115Z,67.65
2018-10-09T11:42:55.256Z,68.41
2018-10-09T11:43:55.106Z,70.53
2018-10-09T11:44:55.105Z,70.62
2018-10-09T11:45:55.358Z,68.99
2018-10-09T11:46:55.356Z,68.03
2018-10-09T11:47:55.359Z,69.28
2018-10-09T11:48:55.351Z,70.05
2018-10-09T11:49:55.352Z,69.47
2018-10-09T11:50:55.095Z,68.6
2018-10-09T11:51:55.095Z,68.13
2018-10-09T11:52:55.347Z,68.8
2018-10-09T11:53:55.375Z,67.55
2018-10-09T11:54:55.346Z,65.91
2018-10-09T11:55:55.344Z,66.3
2018-10-09T11:56:55.083Z,67.26
2018-10-09T11:57:55.341Z,66.78
2018-10-09T11:58:55.504Z,66.58
2018-10-09T11:59:55.346Z,64.02
2018-10-09T12:00:55.336Z,64.18
2018-10-09T12:01:55.332Z,64.18
2018-10-09T12:02:55.509Z,64.28
2018-10-09T12:03:55.074Z,65.85
2018-10-09T12:04:55.329Z,67.49
2018-10-09T12:05:55.579Z,67.68
2018-10-09T12:06:55.325Z,65.94
2018-10-09T12:07:55.322Z,62.38
2018-10-09T12:08:55.324Z,61.71
2018-10-09T12:09:55.318Z,62.96
2018-10-09T12:10:55.326Z,63.89
2018-10-09T12:11:55.060Z,64.66
2018-10-09T12:12:55.317Z,65.43
2018-10-09T12:13:55.321Z,63.31
2018-10-09T12:14:55.057Z,63.02
2018-10-09T12:15:55.494Z,63.12
2018-10-09T12:16:55.313Z,61.97
2018-10-09T12:17:55.310Z,61.58
2018-10-09T12:18:55.051Z,64.18
2018-10-09T12:19:55.304Z,64.18
2018-10-09T12:20:55.305Z,64.66
2018-10-09T12:21:55.302Z,66.74
2018-10-09T12:22:55.301Z,65.88
2018-10-09T12:23:55.298Z,68.19
2018-10-09T12:24:55.297Z,66.74
2018-10-09T12:25:55.294Z,65.3
2018-10-09T12:26:55.069Z,64.15
2018-10-09T12:27:55.295Z,63.76
2018-10-09T12:28:55.289Z,62.99
2018-10-09T12:29:55.284Z,62.32
2018-10-09T12:30:55.290Z,61.36
2018-10-09T12:31:55.284Z,61.07
2018-10-09T12:32:55.426Z,60.69
2018-10-09T12:33:55.279Z,61.55
2018-10-09T12:34:55.024Z,61.58
2018-10-09T12:35:55.277Z,61.07
2018-10-09T12:36:55.275Z,60.33
2018-10-09T12:37:55.275Z,61.46
2018-10-09T12:38:55.271Z,61.07
2018-10-09T12:39:55.268Z,62.9
2018-10-09T12:40:55.268Z,62.61
2018-10-09T12:41:55.267Z,61.65
2018-10-09T12:42:55.264Z,61.77
2018-10-09T12:43:55.457Z,62.03
2018-10-09T12:44:55.265Z,62.93
2018-10-09T12:45:55.262Z,61.46
2018-10-09T12:46:55.255Z,60.59
2018-10-09T12:47:55.255Z,60.49
2018-10-09T12:48:54.996Z,61.46
2018-10-09T12:49:55.251Z,61.55
2018-10-09T12:50:55.251Z,62.23
2018-10-09T12:51:55.248Z,61.84
2018-10-09T12:52:55.333Z,62.13
2018-10-09T12:53:55.242Z,63.51
2018-10-09T12:54:54.986Z,63.41
2018-10-09T12:55:55.240Z,64.18
2018-10-09T12:56:54.984Z,62.9
2018-10-09T12:57:54.984Z,62.32
2018-10-09T12:58:55.324Z,61.94
2018-10-09T12:59:55.238Z,62.13
2018-10-09T13:00:55.232Z,61.94
2018-10-09T13:01:55.237Z,61.68
2018-10-09T13:02:54.992Z,61.19
2018-10-09T13:03:55.224Z,60.59
2018-10-09T13:04:55.223Z,60.14
2018-10-09T13:05:55.222Z,60.24
2018-10-09T13:06:55.222Z,60.49
2018-10-09T13:07:55.220Z,60.49
2018-10-09T13:08:55.217Z,60.3
2018-10-09T13:09:54.959Z,60.78
2018-10-09T13:10:55.221Z,61.16
2018-10-09T13:11:55.215Z,61.46
2018-10-09T13:12:55.207Z,61.07
2018-10-09T13:13:55.209Z,60.69
2018-10-09T13:14:54.952Z,61.16
2018-10-09T13:15:55.201Z,61.55
2018-10-09T13:16:54.946Z,61.36
2018-10-09T13:17:55.199Z,61.74
2018-10-09T13:18:55.199Z,61.65
2018-10-09T13:19:55.194Z,61.36
2018-10-09T13:20:55.439Z,60.81
2018-10-09T13:21:55.850Z,60.72
2018-10-09T13:22:55.046Z,61.55
2018-10-09T13:23:55.186Z,61
2018-10-09T13:24:55.187Z,60.69
2018-10-09T13:25:55.203Z,61.74
2018-10-09T13:26:55.184Z,62.26
2018-10-09T13:27:54.927Z,62.93
2018-10-09T13:28:55.176Z,63.57
2018-10-09T13:29:55.174Z,64.18
2018-10-09T13:30:55.305Z,64.25
2018-10-09T13:31:55.173Z,63.79
2018-10-09T13:32:55.167Z,62.83
2018-10-09T13:33:55.204Z,61.39
2018-10-09T13:34:55.165Z,60.62
2018-10-09T13:35:55.168Z,60.52
2018-10-09T13:36:55.165Z,60.42
2018-10-09T13:37:55.159Z,59.37
2018-10-09T13:38:55.158Z,59.17
2018-10-09T13:39:55.160Z,59.17
2018-10-09T13:40:55.256Z,60.24
2018-10-09T13:41:54.897Z,60.91
2018-10-09T13:42:55.157Z,61.1
2018-10-09T13:43:55.243Z,60.81
2018-10-09T13:44:55.148Z,59.47
2018-10-09T13:45:55.164Z,57.45
2018-10-09T13:46:55.150Z,57.83
2018-10-09T13:47:55.150Z,58.02
2018-10-09T13:48:55.143Z,58.6
2018-10-09T13:49:55.143Z,58.4
2018-10-09T13:50:55.370Z,58.22
2018-10-09T13:51:55.135Z,57.64
2018-10-09T13:52:55.137Z,58.31
2018-10-09T13:53:55.134Z,57.64
2018-10-09T13:54:54.876Z,57.64
2018-10-09T13:55:55.137Z,58.02
2018-10-09T13:56:55.131Z,57.83